Terminal Aerodrome Forecast
Issued by NWS

Home | Current Version | Previous Version | Text Only | Print | Product List | Glossary On
Versions: 1 2 3 4 5 6 7 8 9 10 11 12 13 14 15
719
FTUS41 KILN 251400 AAA
TAFLUK
TAF AMD
KLUK 251400Z 2514/2612 22007KT P6SM SCT018
     FM251430 21008KT P6SM BKN018
     FM251530 22009KT P6SM BKN025
     FM251800 23010KT P6SM SCT045
     FM260000 27006KT P6SM SCT250
     FM260600 00000KT 4SM BR SCT250
      TEMPO 2608/2612 1SM BR=

USA.gov is the U.S. government's official web portal to all federal, state and local government web resources and services.